Time;durP1;ratioP1;P1;durP2;ratioP2;P2;SDS_P1;SDS_P2;PMS_P1;PMS_P2;Temp;Humidity;BMP_temperature;BMP_pressure;BME280_temperature;BME280_humidity;BME280_pressure;Samples;Min_cycle;Max_cycle;Signal;HPM_P1;HPM_P2
2023/12/03 12:18:07;;;;;;;15.33;11.13;;;;;;;5.33;44.47;96733.66;5119482;27;20818;-69
2023/12/03 12:20:33;;;;;;;14.10;10.37;;;;;;;5.30;44.18;96742.38;5099027;27;20450;-69
2023/12/03 12:22:58;;;;;;;17.40;11.37;;;;;;;4.61;44.70;96748.72;5102402;28;20188;-68
2023/12/03 12:25:26;;;;;;;11.37;10.23;;;;;;;3.80;46.45;96748.06;5092825;28;20193;-66
2023/12/03 12:27:52;;;;;;;14.37;10.80;;;;;;;3.81;46.93;96747.16;5075462;28;20616;-67
2023/12/03 12:30:22;;;;;;;17.10;10.60;;;;;;;3.90;47.34;96746.22;5073176;28;20970;-70
2023/12/03 12:32:51;;;;;;;14.50;11.47;;;;;;;4.28;46.39;96746.59;5084936;28;20492;-68
2023/12/03 12:35:20;;;;;;;17.00;11.20;;;;;;;4.45;46.55;96737.66;5080395;28;20443;-69
2023/12/03 12:37:46;;;;;;;18.13;9.73;;;;;;;4.31;46.11;96726.63;5080963;28;20524;-70
2023/12/03 12:40:12;;;;;;;19.17;11.63;;;;;;;4.31;46.44;96729.22;5073609;28;20443;-70
2023/12/03 12:42:42;;;;;;;18.17;12.20;;;;;;;4.57;46.32;96728.84;5077880;28;20177;-68
2023/12/03 12:45:28;;;;;;;19.20;11.90;;;;;;;4.58;48.08;96727.97;5078586;28;20490;-67
2023/12/03 12:47:54;;;;;;;18.23;8.47;;;;;;;8.37;75.86;96713.38;5080682;28;20444;-68
2023/12/03 12:50:30;;;;;;;11.70;9.57;;;;;;;9.26;52.01;96707.97;5080365;28;20432;-69
2023/12/03 12:52:56;;;;;;;29.57;11.80;;;;;;;6.04;43.86;96729.72;5012076;28;20219;-68
2023/12/03 12:55:29;;;;;;;21.40;12.00;;;;;;;5.22;45.00;96720.84;5012552;28;20462;-69
2023/12/03 12:57:54;;;;;;;26.03;12.07;;;;;;;4.55;46.60;96725.41;5003735;28;20462;-69
2023/12/03 13:00:19;;;;;;;21.50;12.10;;;;;;;4.17;47.77;96733.75;5003854;28;20407;-69
2023/12/03 13:02:45;;;;;;;15.57;12.50;;;;;;;3.92;49.21;96731.47;5004432;28;20667;-68
2023/12/03 13:05:10;;;;;;;16.67;11.50;;;;;;;4.02;48.83;96730.47;5003674;28;20203;-68
2023/12/03 13:07:35;;;;;;;29.93;14.90;;;;;;;4.36;47.80;96719.63;5002955;28;20184;-68
2023/12/03 13:10:01;;;;;;;31.43;12.43;;;;;;;4.42;47.42;96722.13;5003300;28;20287;-69
2023/12/03 13:12:27;;;;;;;22.37;11.83;;;;;;;4.38;47.77;96720.44;5003416;28;20703;-72
2023/12/03 13:14:52;;;;;;;21.47;11.57;;;;;;;4.18;47.71;96719.88;5003440;28;20283;-69
2023/12/03 13:17:17;;;;;;;20.50;13.20;;;;;;;4.12;48.86;96726.00;5003797;28;20258;-69
2023/12/03 13:19:43;;;;;;;19.20;13.97;;;;;;;4.03;48.70;96726.97;5004153;28;20246;-67
2023/12/03 13:22:08;;;;;;;17.27;11.77;;;;;;;4.23;48.52;96724.13;5003977;28;20169;-66
2023/12/03 13:24:33;;;;;;;13.63;11.00;;;;;;;3.96;49.39;96727.09;5004274;28;20665;-68
2023/12/03 13:27:00;;;;;;;19.83;12.17;;;;;;;4.08;48.82;96732.13;5009010;28;20183;-68
2023/12/03 13:29:25;;;;;;;17.97;13.40;;;;;;;3.95;49.60;96734.03;4997440;28;20165;-69
2023/12/03 13:31:51;;;;;;;41.10;13.30;;;;;;;4.00;48.63;96734.81;4997455;28;20478;-69
2023/12/03 13:34:16;;;;;;;15.20;12.00;;;;;;;3.90;49.16;96729.75;5008059;28;20179;-68
2023/12/03 13:36:42;;;;;;;17.37;12.60;;;;;;;3.89;49.09;96734.09;5009899;28;20691;-70
2023/12/03 13:39:07;;;;;;;18.40;12.10;;;;;;;3.69;50.40;96728.28;5010086;28;20275;-68
2023/12/03 13:41:33;;;;;;;15.60;11.87;;;;;;;3.76;49.46;96728.19;5010639;28;20176;-67
2023/12/03 13:43:58;;;;;;;17.47;12.57;;;;;;;3.42;50.74;96725.09;4991982;28;20498;-67
2023/12/03 13:46:24;;;;;;;17.50;13.23;;;;;;;3.27;51.43;96715.75;4989049;28;20275;-67
2023/12/03 13:48:50;;;;;;;31.87;14.50;;;;;;;3.23;51.48;96713.22;4989158;28;20183;-68
2023/12/03 13:51:15;;;;;;;32.77;13.50;;;;;;;3.26;51.27;96718.34;4988112;28;20896;-69
2023/12/03 13:53:40;;;;;;;16.43;12.97;;;;;;;3.25;51.16;96716.66;4988500;28;20181;-68
2023/12/03 13:56:10;;;;;;;14.80;11.63;;;;;;;3.23;50.65;96727.03;4987985;28;20289;-69
2023/12/03 13:58:35;;;;;;;17.37;12.80;;;;;;;3.14;51.25;96717.63;4988843;28;20252;-68
2023/12/03 14:01:01;;;;;;;14.97;11.83;;;;;;;2.72;51.08;96724.03;4988559;28;20520;-68
2023/12/03 14:03:26;;;;;;;18.80;11.80;;;;;;;2.59;52.48;96723.25;4989751;28;20180;-69
2023/12/03 14:05:52;;;;;;;20.93;12.17;;;;;;;2.62;52.01;96718.06;4989600;28;20897;-69
2023/12/03 14:08:17;;;;;;;19.70;12.43;;;;;;;2.72;52.87;96721.44;4990526;28;20260;-69
2023/12/03 14:10:42;;;;;;;19.60;13.20;;;;;;;2.72;52.75;96719.72;4989600;28;20847;-69
2023/12/03 14:13:08;;;;;;;15.40;11.87;;;;;;;2.67;51.71;96721.47;4989524;28;20352;-71
2023/12/03 14:15:33;;;;;;;15.00;12.00;;;;;;;2.66;51.34;96722.34;4988966;28;20193;-67
2023/12/03 14:17:58;;;;;;;21.50;12.70;;;;;;;2.31;53.27;96726.03;4987423;28;20549;-68
2023/12/03 14:20:24;;;;;;;15.40;11.53;;;;;;;2.29;53.36;96726.91;4987725;28;20228;-69
2023/12/03 14:22:49;;;;;;;17.00;13.40;;;;;;;2.11;53.66;96733.91;4987844;28;20181;-69
2023/12/03 14:25:15;;;;;;;17.33;12.60;;;;;;;2.42;53.71;96732.88;4987304;28;20288;-70
2023/12/03 14:27:40;;;;;;;18.27;11.57;;;;;;;2.54;52.72;96732.78;4987375;28;20173;-68
2023/12/03 14:30:06;;;;;;;16.87;12.17;;;;;;;2.72;52.07;96739.59;4987461;28;20176;-68
2023/12/03 14:32:31;;;;;;;17.83;11.10;;;;;;;2.66;52.22;96734.44;4988959;28;20181;-68
2023/12/03 14:34:57;;;;;;;18.17;12.67;;;;;;;2.41;53.22;96734.63;5006953;28;20490;-68
2023/12/03 14:37:22;;;;;;;15.03;12.30;;;;;;;1.04;56.90;96735.16;5006308;28;20192;-68
2023/12/03 14:39:48;;;;;;;15.47;12.07;;;;;;;1.94;55.49;96733.16;5005763;28;20200;-68
2023/12/03 14:42:13;;;;;;;20.63;12.40;;;;;;;2.07;54.37;96737.38;5002087;28;20176;-69
2023/12/03 14:44:40;;;;;;;27.40;13.63;;;;;;;2.21;53.36;96739.91;4987133;28;20894;-69
2023/12/03 14:47:05;;;;;;;29.30;13.07;;;;;;;2.29;53.35;96732.97;4986769;28;20576;-68
2023/12/03 14:49:31;;;;;;;26.00;13.90;;;;;;;2.38;53.29;96729.44;4986846;28;20450;-70
2023/12/03 14:51:56;;;;;;;22.77;12.83;;;;;;;2.33;53.12;96726.03;4987382;28;20200;-69
2023/12/03 14:54:24;;;;;;;24.17;13.83;;;;;;;2.25;53.10;96723.50;4987590;28;20889;-68
2023/12/03 14:56:50;;;;;;;19.60;12.80;;;;;;;2.21;53.45;96724.38;4987036;28;20869;-68
2023/12/03 14:59:15;;;;;;;22.53;13.10;;;;;;;1.90;54.46;96728.84;4988367;28;20424;-67
2023/12/03 15:01:40;;;;;;;20.30;13.50;;;;;;;1.53;55.88;96734.16;4987832;28;20173;-68
2023/12/03 15:04:07;;;;;;;26.33;15.33;;;;;;;1.60;55.73;96728.09;4988192;28;20173;-69
2023/12/03 15:06:32;;;;;;;14.60;12.17;;;;;;;1.37;56.17;96724.72;4987334;28;20200;-69
2023/12/03 15:08:58;;;;;;;14.03;12.50;;;;;;;0.83;57.39;96719.66;4987500;28;21241;-69
2023/12/03 15:11:24;;;;;;;16.07;11.93;;;;;;;0.85;57.91;96725.66;4986718;28;20714;-69
2023/12/03 15:13:50;;;;;;;15.10;11.90;;;;;;;0.71;58.76;96729.97;4986663;28;20268;-67
2023/12/03 15:16:16;;;;;;;21.17;15.50;;;;;;;0.70;58.86;96733.44;4986188;28;20503;-68
2023/12/03 15:18:42;;;;;;;17.10;13.10;;;;;;;0.91;58.52;96733.41;4987111;28;20208;-69
2023/12/03 15:21:08;;;;;;;19.67;14.13;;;;;;;0.77;58.35;96741.16;4987230;28;20447;-68
2023/12/03 15:23:37;;;;;;;14.67;12.20;;;;;;;0.70;57.86;96744.63;4988652;28;20176;-68
2023/12/03 15:26:02;;;;;;;19.70;12.60;;;;;;;0.93;58.46;96736.88;4989012;28;20446;-69
2023/12/03 15:28:28;;;;;;;20.50;14.10;;;;;;;1.17;57.69;96743.72;4989117;28;20432;-68
2023/12/03 15:30:54;;;;;;;18.13;12.70;;;;;;;1.25;57.24;96746.28;4989067;28;20230;-68
2023/12/03 15:33:19;;;;;;;20.33;13.43;;;;;;;0.85;57.64;96738.59;4996332;28;20219;-66
2023/12/03 15:35:45;;;;;;;18.07;14.23;;;;;;;0.62;57.95;96734.28;5007087;28;20466;-69
2023/12/03 15:38:10;;;;;;;18.33;13.40;;;;;;;0.05;60.19;96746.25;4998020;28;20219;-68
2023/12/03 15:40:37;;;;;;;20.50;13.50;;;;;;;0.37;59.70;96743.72;5002399;28;20219;-67
2023/12/03 15:43:03;;;;;;;26.77;16.38;;;;;;;0.63;58.81;96746.34;5004441;28;20431;-68
2023/12/03 15:45:28;;;;;;;30.50;15.33;;;;;;;0.90;58.58;96757.56;5003857;28;20284;-70
2023/12/03 15:47:54;;;;;;;23.67;13.03;;;;;;;0.57;58.75;96751.50;5000628;28;20231;-68
2023/12/03 15:50:21;;;;;;;29.77;15.60;;;;;;;0.03;60.20;96758.28;5006416;28;20226;-69
2023/12/03 15:52:47;;;;;;;15.67;13.93;;;;;;;-0.37;62.79;96762.44;5008789;28;20227;-69
2023/12/03 15:55:13;;;;;;;22.73;13.80;;;;;;;-0.69;62.89;96765.69;5007122;28;20454;-67
2023/12/03 15:57:38;;;;;;;26.40;15.67;;;;;;;-0.49;63.06;96766.66;5003146;28;20180;-68
2023/12/03 16:00:07;;;;;;;25.17;15.77;;;;;;;-0.66;63.76;96765.72;5005452;28;20443;-68
2023/12/03 16:02:33;;;;;;;23.53;15.90;;;;;;;-0.50;63.29;96771.81;4995682;28;20224;-67
2023/12/03 16:04:58;;;;;;;25.37;14.60;;;;;;;-0.22;62.60;96772.81;5006511;28;20825;-67
2023/12/03 16:07:24;;;;;;;23.70;16.90;;;;;;;0.14;61.45;96769.50;5006558;28;20478;-67
2023/12/03 16:09:49;;;;;;;23.30;16.07;;;;;;;0.27;61.28;96774.69;5007567;28;20207;-68
2023/12/03 16:12:14;;;;;;;27.17;16.17;;;;;;;0.39;60.54;96773.00;5001130;28;20258;-67
2023/12/03 16:14:40;;;;;;;25.00;17.10;;;;;;;0.53;60.05;96761.84;4995378;28;20180;-65
2023/12/03 16:17:05;;;;;;;18.80;14.80;;;;;;;0.57;59.41;96764.41;5004892;28;20207;-69
2023/12/03 16:19:31;;;;;;;20.73;14.90;;;;;;;0.42;59.83;96765.25;5006568;28;20242;-68
2023/12/03 16:21:56;;;;;;;31.50;14.93;;;;;;;0.66;59.26;96763.53;5008620;28;20188;-66
2023/12/03 16:24:21;;;;;;;18.40;14.10;;;;;;;0.79;58.20;96756.69;4998269;28;20270;-67
2023/12/03 16:26:47;;;;;;;19.70;13.97;;;;;;;0.79;58.50;96756.69;4997211;28;20204;-67
2023/12/03 16:29:13;;;;;;;23.13;14.87;;;;;;;0.60;59.68;96753.22;4998208;28;20197;-67
2023/12/03 16:31:38;;;;;;;20.73;15.77;;;;;;;0.76;59.47;96754.09;5009545;28;20212;-67
2023/12/03 16:34:03;;;;;;;23.67;15.40;;;;;;;0.58;59.36;96750.63;5006674;28;20543;-66
2023/12/03 16:36:29;;;;;;;22.20;17.37;;;;;;;0.54;59.84;96756.66;5009559;28;20207;-64
2023/12/03 16:38:54;;;;;;;22.33;17.30;;;;;;;0.47;60.45;96751.47;5009950;28;20188;-67
2023/12/03 16:41:19;;;;;;;24.70;16.80;;;;;;;0.00;61.02;96758.28;5009186;28;20862;-67
2023/12/03 16:43:45;;;;;;;24.60;17.47;;;;;;;0.40;60.24;96758.34;5003272;28;20196;-68
2023/12/03 16:46:11;;;;;;;30.40;18.63;;;;;;;0.59;59.81;96752.38;5000759;28;20839;-69
2023/12/03 16:48:37;;;;;;;27.07;17.30;;;;;;;0.55;59.88;96753.22;5009836;28;20188;-67
2023/12/03 16:51:05;;;;;;;23.13;14.90;;;;;;;0.37;59.03;96764.38;5009860;28;20435;-65
2023/12/03 16:53:33;;;;;;;21.10;14.30;;;;;;;-0.15;60.07;96769.38;5002016;28;20439;-68
2023/12/03 16:55:58;;;;;;;23.33;16.50;;;;;;;-0.20;60.51;96770.25;5001119;28;20430;-66
2023/12/03 16:58:24;;;;;;;22.73;16.70;;;;;;;-0.14;60.08;96770.25;5005571;28;20180;-67
2023/12/03 17:00:50;;;;;;;23.53;15.57;;;;;;;-0.17;60.72;96771.09;5007346;28;20773;-68
2023/12/03 17:03:15;;;;;;;21.67;15.70;;;;;;;-0.41;61.34;96777.00;5004001;28;20184;-66
2023/12/03 17:05:41;;;;;;;35.33;17.17;;;;;;;-0.45;61.17;96767.53;5007197;28;20200;-69
2023/12/03 17:08:06;;;;;;;19.90;15.20;;;;;;;-0.54;61.83;96768.38;5013537;28;20183;-65
2023/12/03 17:10:34;;;;;;;25.73;15.73;;;;;;;-0.46;60.64;96774.41;5018428;28;20176;-67
2023/12/03 17:13:02;;;;;;;20.40;15.10;;;;;;;-0.65;61.35;96768.28;5014454;28;21032;-68
2023/12/03 17:15:30;;;;;;;22.73;14.77;;;;;;;-1.13;63.12;96774.84;5013000;28;20450;-69
2023/12/03 17:17:59;;;;;;;20.87;15.60;;;;;;;-0.28;67.21;96765.91;5007464;28;20536;-68
2023/12/03 17:20:25;;;;;;;22.07;15.43;;;;;;;0.58;76.32;96768.72;5005876;28;20446;-68
2023/12/03 17:22:50;;;;;;;23.80;15.83;;;;;;;-0.78;62.90;96773.34;5003312;28;20471;-67
2023/12/03 17:25:16;;;;;;;24.97;16.80;;;;;;;-1.23;64.25;96777.31;5005839;28;20482;-66
2023/12/03 17:27:44;;;;;;;22.80;16.97;;;;;;;-0.94;63.49;96767.25;5006878;28;20671;-68
2023/12/03 17:30:10;;;;;;;22.40;15.90;;;;;;;-0.90;62.60;96762.13;5003974;28;20178;-68
2023/12/03 17:32:35;;;;;;;22.23;14.93;;;;;;;-0.56;61.62;96761.47;5006102;28;20765;-65
2023/12/03 17:35:00;;;;;;;29.10;17.60;;;;;;;-0.45;61.53;96767.53;5010747;28;20204;-66
2023/12/03 17:37:26;;;;;;;26.57;17.10;;;;;;;-1.10;62.78;96780.00;5008258;28;20212;-69
2023/12/03 17:39:51;;;;;;;25.67;16.53;;;;;;;-1.02;62.64;96769.75;5007539;28;20295;-65
2023/12/03 17:42:17;;;;;;;23.73;16.40;;;;;;;-0.83;62.27;96772.47;5001902;28;20818;-67
2023/12/03 17:44:42;;;;;;;20.83;14.80;;;;;;;-0.46;61.51;96770.97;5012148;28;20176;-71
2023/12/03 17:47:07;;;;;;;21.63;14.80;;;;;;;-0.24;60.88;96766.78;5006236;28;20188;-68
2023/12/03 17:49:34;;;;;;;23.10;16.70;;;;;;;-0.32;60.34;96768.47;5011847;28;20184;-66
2023/12/03 17:51:59;;;;;;;22.50;16.03;;;;;;;-0.55;60.91;96763.19;5008576;28;20180;-65
2023/12/03 17:54:24;;;;;;;24.33;17.90;;;;;;;-0.97;61.62;96762.06;5003025;28;20519;-66
2023/12/03 17:56:50;;;;;;;25.67;16.67;;;;;;;-1.04;62.08;96770.59;5003738;28;20211;-72
2023/12/03 17:59:16;;;;;;;24.37;18.60;;;;;;;-1.24;62.48;96763.59;5000380;28;20184;-67
2023/12/03 18:01:41;;;;;;;23.33;15.97;;;;;;;-1.37;62.97;96764.31;5008283;28;20184;-70
2023/12/03 18:04:09;;;;;;;27.07;17.87;;;;;;;-1.28;63.55;96761.84;5001203;28;20534;-70
2023/12/03 18:06:34;;;;;;;24.33;17.20;;;;;;;-0.99;63.05;96758.59;5008295;28;20206;-70
2023/12/03 18:08:59;;;;;;;22.47;15.40;;;;;;;-0.84;61.05;96760.44;5008751;28;20439;-68
2023/12/03 18:11:25;;;;;;;19.90;16.57;;;;;;;-1.55;62.55;96767.63;5007478;28;20172;-68
2023/12/03 18:13:50;;;;;;;24.03;15.60;;;;;;;-1.09;61.48;96761.16;5008015;28;20585;-67
2023/12/03 18:16:17;;;;;;;24.83;17.50;;;;;;;-1.34;61.74;96756.66;5004194;28;20204;-69
2023/12/03 18:18:42;;;;;;;22.70;15.43;;;;;;;-1.56;62.59;96760.72;5008837;28;20188;-70
2023/12/03 18:21:08;;;;;;;19.17;15.50;;;;;;;-1.71;62.91;96761.44;5010637;28;20445;-68
2023/12/03 18:23:33;;;;;;;24.00;17.67;;;;;;;-2.02;64.35;96768.00;5005511;28;20264;-68
2023/12/03 18:26:00;;;;;;;42.33;17.17;;;;;;;-2.01;63.56;96756.84;5006455;28;20269;-67
2023/12/03 18:28:25;;;;;;;25.90;17.20;;;;;;;-2.81;65.46;96750.72;5008292;28;20232;-68
2023/12/03 18:30:51;;;;;;;23.60;16.60;;;;;;;-2.01;64.42;96750.03;5009959;28;20996;-71
2023/12/03 18:33:19;;;;;;;24.03;17.37;;;;;;;-1.42;62.51;96753.97;5006586;28;20679;-67
2023/12/03 18:35:44;;;;;;;24.50;16.70;;;;;;;-0.94;60.44;96747.50;4998899;28;20196;-67
2023/12/03 18:38:10;;;;;;;24.57;15.97;;;;;;;-1.62;61.55;96765.84;5001744;28;20513;-69
2023/12/03 18:40:36;;;;;;;28.77;19.27;;;;;;;-2.10;63.07;96770.47;5000466;28;20184;-68
2023/12/03 18:43:02;;;;;;;25.63;19.30;;;;;;;-2.60;65.14;96763.88;5005051;28;20185;-69
2023/12/03 18:45:28;;;;;;;30.13;19.63;;;;;;;-2.48;64.47;96762.28;5001684;28;20458;-68
2023/12/03 18:47:53;;;;;;;24.97;17.80;;;;;;;-2.81;66.18;96761.00;5001051;28;20177;-68
2023/12/03 18:50:19;;;;;;;29.47;22.13;;;;;;;-3.41;68.23;96766.09;5004391;28;20962;-70
2023/12/03 18:52:44;;;;;;;30.23;18.70;;;;;;;-2.25;64.48;96762.56;5002458;28;20181;-68
2023/12/03 18:55:11;;;;;;;23.27;16.70;;;;;;;-2.30;64.12;96762.53;5003760;28;20712;-69
2023/12/03 18:57:37;;;;;;;26.90;18.30;;;;;;;-2.02;63.29;96763.69;4996785;28;20220;-67
2023/12/03 19:00:03;;;;;;;26.83;17.17;;;;;;;-2.51;64.00;96757.97;5001320;28;20447;-71
2023/12/03 19:02:29;;;;;;;31.63;17.93;;;;;;;-2.86;66.16;96754.94;5001640;28;20419;-69
2023/12/03 19:04:54;;;;;;;27.03;18.57;;;;;;;-2.47;64.59;96757.19;5010398;28;20445;-67
2023/12/03 19:07:20;;;;;;;24.63;18.07;;;;;;;-2.41;64.21;96752.13;5010085;28;20179;-72
2023/12/03 19:09:45;;;;;;;29.93;18.67;;;;;;;-2.63;64.48;96748.41;5006769;28;20187;-69
2023/12/03 19:12:11;;;;;;;24.47;17.27;;;;;;;-2.97;66.37;96748.81;5005094;28;20675;-67
2023/12/03 19:14:36;;;;;;;30.60;17.43;;;;;;;-1.76;75.25;96742.53;5006687;28;20648;-68
2023/12/03 19:17:02;;;;;;;30.07;19.77;;;;;;;-2.06;64.09;96738.78;5000691;28;20196;-69
2023/12/03 19:19:28;;;;;;;33.63;18.40;;;;;;;-1.63;62.53;96731.53;4998960;28;20189;-70
2023/12/03 19:21:53;;;;;;;26.80;18.57;;;;;;;-1.62;61.89;96730.66;5004992;28;20523;-68
2023/12/03 19:24:18;;;;;;;29.67;20.40;;;;;;;-2.04;62.05;96734.53;4992309;28;20183;-69
2023/12/03 19:26:44;;;;;;;30.77;21.97;;;;;;;-2.92;64.80;96745.44;5008001;28;20465;-69
2023/12/03 19:29:10;;;;;;;26.60;21.20;;;;;;;-2.68;64.49;96736.34;5010025;28;20180;-69
2023/12/03 19:31:48;;;;;;;27.40;20.10;;;;;;;-2.96;66.27;96729.97;5009776;28;20699;-70
2023/12/03 19:34:13;;;;;;;27.97;20.00;;;;;;;-3.11;65.88;96733.19;4997757;28;20521;-68
2023/12/03 19:36:38;;;;;;;34.43;23.80;;;;;;;-3.39;67.61;96732.75;5008313;28;20462;-68
2023/12/03 19:39:05;;;;;;;33.60;22.57;;;;;;;-3.36;67.61;96732.81;5008160;28;20267;-68
2023/12/03 19:41:31;;;;;;;34.57;23.57;;;;;;;-3.12;66.71;96736.59;5003177;28;20181;-69
2023/12/03 19:43:57;;;;;;;31.97;22.23;;;;;;;-2.45;63.98;96716.94;4994685;28;20439;-68
2023/12/03 19:46:22;;;;;;;38.07;22.23;;;;;;;-1.96;62.57;96714.91;5006926;28;20459;-70
2023/12/03 19:48:47;;;;;;;32.60;22.53;;;;;;;-2.22;63.52;96709.50;5007798;28;20176;-68
2023/12/03 19:51:13;;;;;;;31.30;22.20;;;;;;;-2.56;64.08;96714.22;5004433;28;20187;-67
2023/12/03 19:53:43;;;;;;;34.70;23.83;;;;;;;-3.10;66.20;96712.66;4994718;28;20214;-68
2023/12/03 19:56:09;;;;;;;37.90;22.40;;;;;;;-2.92;66.20;96703.50;5005738;28;20212;-69
2023/12/03 19:58:35;;;;;;;35.73;22.77;;;;;;;-2.52;64.25;96696.31;5000295;28;20892;-68
2023/12/03 20:01:02;;;;;;;30.50;20.27;;;;;;;-2.65;65.12;96701.28;5004267;28;20482;-67
2023/12/03 20:03:28;;;;;;;37.37;22.57;;;;;;;-2.69;66.00;96686.69;5007531;28;20180;-70
2023/12/03 20:05:55;;;;;;;32.13;22.17;;;;;;;-2.83;66.32;96691.66;5006652;28;20454;-71
2023/12/03 20:08:21;;;;;;;32.40;23.60;;;;;;;-2.73;66.24;96691.75;4997809;28;20813;-68
2023/12/03 20:10:47;;;;;;;33.27;24.57;;;;;;;-2.74;67.19;96690.03;5005053;28;20807;-70
2023/12/03 20:13:13;;;;;;;36.87;21.83;;;;;;;-2.75;67.12;96680.59;4997454;28;20432;-69
2023/12/03 20:15:39;;;;;;;41.10;24.67;;;;;;;-2.54;67.46;96678.28;5007360;28;20454;-69
2023/12/03 20:18:04;;;;;;;37.47;25.37;;;;;;;-2.93;68.78;96671.81;5006031;28;20746;-67
2023/12/03 20:20:30;;;;;;;41.80;25.50;;;;;;;-2.86;69.02;96678.78;5005494;28;20474;-69
2023/12/03 20:22:56;;;;;;;46.83;29.50;;;;;;;-2.87;69.56;96674.47;5005173;28;20517;-68
2023/12/03 20:25:21;;;;;;;49.03;30.13;;;;;;;-2.56;68.89;96674.84;5002107;28;20287;-68
2023/12/03 20:27:47;;;;;;;47.57;26.53;;;;;;;-2.61;68.68;96673.94;5007460;28;20505;-67
2023/12/03 20:30:13;;;;;;;55.10;28.87;;;;;;;-2.75;69.06;96665.19;5004919;28;20184;-71
2023/12/03 20:32:38;;;;;;;50.27;28.43;;;;;;;-2.67;69.14;96668.69;5001872;28;20184;-69
2023/12/03 20:35:04;;;;;;;52.93;27.20;;;;;;;-2.45;68.98;96662.97;5005646;28;20678;-67
2023/12/03 20:37:29;;;;;;;47.30;26.60;;;;;;;-2.70;69.71;96664.41;4996422;28;20197;-69
2023/12/03 20:39:55;;;;;;;41.50;25.57;;;;;;;-2.66;70.28;96652.47;5008272;28;20872;-68
2023/12/03 20:42:20;;;;;;;50.00;28.47;;;;;;;-2.48;70.06;96650.09;5008977;28;20267;-70
2023/12/03 20:44:45;;;;;;;48.00;27.40;;;;;;;-2.31;69.16;96641.72;5002544;28;20199;-65
2023/12/03 20:47:12;;;;;;;49.43;25.60;;;;;;;-2.36;69.09;96645.09;5009705;28;20188;-68
2023/12/03 20:49:37;;;;;;;56.53;27.00;;;;;;;-2.73;71.19;96637.81;5010463;28;20875;-69
2023/12/03 20:52:04;;;;;;;41.80;22.60;;;;;;;-2.56;71.61;96636.31;5005124;28;20443;-68
2023/12/03 20:54:29;;;;;;;48.90;23.93;;;;;;;-2.41;71.41;96635.59;5000606;28;20315;-70
2023/12/03 20:56:57;;;;;;;42.63;23.73;;;;;;;-2.60;71.89;96639.66;4998507;28;20474;-70
2023/12/03 20:59:23;;;;;;;50.97;27.00;;;;;;;-2.84;71.86;96645.38;5004513;28;20283;-69
2023/12/03 21:01:48;;;;;;;41.60;24.10;;;;;;;-2.65;72.70;96636.19;5008925;28;20487;-67
2023/12/03 21:04:14;;;;;;;41.90;25.83;;;;;;;-2.90;73.13;96632.50;5004779;28;20667;-67
2023/12/03 21:06:39;;;;;;;49.23;23.67;;;;;;;-3.26;73.22;96621.78;4995821;28;20196;-70
2023/12/03 21:09:05;;;;;;;45.97;24.30;;;;;;;-3.50;73.36;96613.72;5009683;28;20458;-67
2023/12/03 21:11:30;;;;;;;44.53;22.07;;;;;;;-3.02;73.82;96608.38;5005670;28;20259;-68
2023/12/03 21:13:56;;;;;;;45.30;25.27;;;;;;;-2.95;74.27;96609.31;5005541;28;20246;-68
2023/12/03 21:16:21;;;;;;;39.10;23.10;;;;;;;-3.11;72.70;96610.84;5004877;28;20216;-69
2023/12/03 21:18:47;;;;;;;48.77;22.97;;;;;;;-3.44;73.65;96608.69;4999159;28;20187;-69
2023/12/03 21:21:12;;;;;;;48.47;23.40;;;;;;;-2.92;72.01;96606.78;5000598;28;20184;-67
2023/12/03 21:23:38;;;;;;;43.37;23.47;;;;;;;-3.06;71.84;96591.22;5010142;28;20184;-70
2023/12/03 21:26:04;;;;;;;49.30;26.37;;;;;;;-2.83;72.03;96580.38;5005310;28;20314;-69
2023/12/03 21:28:29;;;;;;;57.13;27.00;;;;;;;-2.62;70.04;96574.59;5005587;28;20237;-69
2023/12/03 21:30:55;;;;;;;39.57;23.00;;;;;;;-3.31;69.94;96581.47;5008257;28;21113;-69
2023/12/03 21:33:21;;;;;;;35.97;23.30;;;;;;;-3.25;70.01;96579.00;5008357;28;20189;-70
2023/12/03 21:35:50;;;;;;;42.90;23.27;;;;;;;-3.17;70.27;96576.53;5006184;28;20235;-68
2023/12/03 21:38:17;;;;;;;37.93;23.10;;;;;;;-3.87;72.57;96582.41;5007995;28;20235;-70
2023/12/03 21:40:42;;;;;;;39.73;22.00;;;;;;;-3.10;75.61;96575.75;5007859;28;20435;-69
2023/12/03 21:43:08;;;;;;;50.10;23.43;;;;;;;-2.98;72.85;96560.47;5005600;28;20470;-70
2023/12/03 21:45:33;;;;;;;38.67;22.53;;;;;;;-2.48;71.57;96544.75;5000146;28;20247;-70
2023/12/03 21:47:58;;;;;;;40.07;22.67;;;;;;;-3.58;72.42;96562.31;5006926;28;20640;-69
2023/12/03 21:50:24;;;;;;;38.63;21.40;;;;;;;-3.48;73.42;96568.44;5006922;28;20196;-70
2023/12/03 21:52:49;;;;;;;31.50;18.80;;;;;;;-3.09;72.86;96554.38;5006734;28;20180;-69
2023/12/03 21:55:15;;;;;;;44.53;22.23;;;;;;;-3.27;73.02;96562.72;5007944;28;20279;-68
2023/12/03 21:57:40;;;;;;;36.77;21.60;;;;;;;-3.29;73.43;96565.25;5000719;28;20200;-70
2023/12/03 22:00:07;;;;;;;38.40;21.23;;;;;;;-3.69;75.41;96548.47;5004544;28;20687;-69
2023/12/03 22:02:32;;;;;;;35.03;20.20;;;;;;;-3.33;74.21;96545.56;5003748;28;20198;-68
2023/12/03 22:04:58;;;;;;;35.20;21.70;;;;;;;-3.07;73.47;96539.84;5008478;28;20455;-70
2023/12/03 22:07:24;;;;;;;34.73;19.37;;;;;;;-2.43;70.01;96543.09;5001488;28;20178;-70
2023/12/03 22:09:50;;;;;;;32.60;18.63;;;;;;;-2.00;68.56;96533.16;5006680;28;20291;-69
2023/12/03 22:12:15;;;;;;;35.37;18.37;;;;;;;-1.90;67.94;96533.22;5005042;28;20212;-69
2023/12/03 22:14:41;;;;;;;32.87;19.07;;;;;;;-1.94;68.32;96535.78;5004246;28;20471;-70
2023/12/03 22:17:07;;;;;;;29.13;18.30;;;;;;;-2.19;67.54;96544.16;5005402;28;20219;-70
2023/12/03 22:19:32;;;;;;;32.67;18.13;;;;;;;-2.87;69.39;96546.06;5008535;28;20284;-70
2023/12/03 22:21:57;;;;;;;39.03;20.33;;;;;;;-2.59;69.41;96538.66;5006468;28;20176;-70
2023/12/03 22:24:23;;;;;;;33.90;18.63;;;;;;;-2.55;69.03;96537.84;5002179;28;20173;-70
2023/12/03 22:26:48;;;;;;;43.53;19.83;;;;;;;-3.16;70.16;96542.34;4994038;28;20258;-70
2023/12/03 22:29:15;;;;;;;33.97;22.23;;;;;;;-2.92;68.99;96540.03;4986626;28;20224;-69
2023/12/03 22:31:41;;;;;;;38.63;21.93;;;;;;;-2.99;69.75;96533.09;4986432;28;20173;-70
2023/12/03 22:34:07;;;;;;;41.77;21.70;;;;;;;-3.29;70.58;96531.91;4998414;28;20438;-70
2023/12/03 22:36:32;;;;;;;36.70;20.57;;;;;;;-3.42;70.70;96528.31;4993721;28;21257;-70
2023/12/03 22:38:57;;;;;;;34.17;23.20;;;;;;;-3.26;69.79;96521.69;4986247;28;20205;-69
2023/12/03 22:41:23;;;;;;;34.50;19.63;;;;;;;-3.10;70.69;96524.41;4988666;28;20165;-68
2023/12/03 22:43:49;;;;;;;32.40;19.87;;;;;;;-2.69;69.32;96521.41;4997435;28;20176;-68
2023/12/03 22:46:15;;;;;;;33.20;19.50;;;;;;;-2.31;66.89;96518.34;4995316;28;20459;-69
2023/12/03 22:48:44;;;;;;;31.93;18.93;;;;;;;-2.48;65.40;96507.91;4997527;28;20797;-70
2023/12/03 22:51:11;;;;;;;33.67;21.40;;;;;;;-2.54;64.00;96513.84;4999134;28;20443;-70
2023/12/03 22:53:36;;;;;;;36.60;21.37;;;;;;;-3.34;66.48;96509.59;4989726;28;20407;-70
2023/12/03 22:56:01;;;;;;;33.93;21.30;;;;;;;-3.31;67.58;96515.59;5005023;28;20431;-69
2023/12/03 22:58:27;;;;;;;42.60;22.30;;;;;;;-3.52;68.66;96511.09;4992545;28;20296;-70
2023/12/03 23:00:52;;;;;;;38.10;21.67;;;;;;;-3.59;69.13;96511.88;4984551;28;20181;-70
2023/12/03 23:03:18;;;;;;;41.80;23.60;;;;;;;-3.47;70.06;96495.78;4985297;28;20183;-69
2023/12/03 23:05:43;;;;;;;48.63;23.83;;;;;;;-3.76;71.15;96500.50;4985479;28;20625;-70
2023/12/03 23:08:09;;;;;;;44.27;22.57;;;;;;;-3.73;72.93;96504.00;4985466;28;20197;-69
2023/12/03 23:10:34;;;;;;;57.43;22.70;;;;;;;-3.34;70.89;96494.19;4985693;28;20203;-69
2023/12/03 23:13:00;;;;;;;49.80;21.87;;;;;;;-3.84;71.17;96490.16;4985511;28;20173;-70
2023/12/03 23:15:26;;;;;;;32.33;18.50;;;;;;;-4.38;73.82;96483.41;4985495;28;20276;-69
2023/12/03 23:17:51;;;;;;;37.97;20.50;;;;;;;-3.80;73.20;96479.13;4985386;28;20673;-68
2023/12/03 23:20:17;;;;;;;33.53;20.10;;;;;;;-3.24;70.98;96478.06;4985663;28;20428;-69
2023/12/03 23:22:42;;;;;;;40.97;21.57;;;;;;;-3.63;71.07;96477.63;4985694;28;20173;-70
2023/12/03 23:25:08;;;;;;;38.60;19.97;;;;;;;-3.53;72.52;96472.59;4985423;28;20686;-70
2023/12/03 23:27:33;;;;;;;53.77;21.30;;;;;;;-3.97;72.60;96478.84;4985358;28;20165;-70
2023/12/03 23:29:58;;;;;;;41.47;21.17;;;;;;;-4.02;72.35;96477.09;4985577;28;20169;-70